sensor_id;sensor_type;location;lat;lon;timestamp;P1;durP1;ratioP1;P2;durP2;ratioP2
21729;SDS011;11027;51.030;13.812;2022-09-27T00:00:29;4.28;;;1.67;;
21729;SDS011;11027;51.030;13.812;2022-09-27T00:02:54;3.03;;;1.50;;
21729;SDS011;11027;51.030;13.812;2022-09-27T00:05:20;3.50;;;1.45;;
21729;SDS011;11027;51.030;13.812;2022-09-27T00:07:45;2.45;;;1.50;;
21729;SDS011;11027;51.030;13.812;2022-09-27T00:10:10;2.20;;;1.30;;
21729;SDS011;11027;51.030;13.812;2022-09-27T00:12:36;2.33;;;1.48;;
21729;SDS011;11027;51.030;13.812;2022-09-27T00:15:03;3.17;;;1.23;;
21729;SDS011;11027;51.030;13.812;2022-09-27T00:17:29;1.58;;;1.30;;
21729;SDS011;11027;51.030;13.812;2022-09-27T00:19:54;2.63;;;1.60;;
21729;SDS011;11027;51.030;13.812;2022-09-27T00:22:23;5.25;;;1.40;;
21729;SDS011;11027;51.030;13.812;2022-09-27T00:24:49;3.05;;;1.40;;
21729;SDS011;11027;51.030;13.812;2022-09-27T00:27:15;3.97;;;1.63;;
21729;SDS011;11027;51.030;13.812;2022-09-27T00:29:41;3.42;;;1.50;;
21729;SDS011;11027;51.030;13.812;2022-09-27T00:32:07;3.33;;;1.40;;
21729;SDS011;11027;51.030;13.812;2022-09-27T00:34:32;4.07;;;1.65;;
21729;SDS011;11027;51.030;13.812;2022-09-27T00:36:57;3.42;;;1.40;;
21729;SDS011;11027;51.030;13.812;2022-09-27T00:39:22;3.75;;;1.42;;
21729;SDS011;11027;51.030;13.812;2022-09-27T00:41:48;3.00;;;1.58;;
21729;SDS011;11027;51.030;13.812;2022-09-27T00:46:55;2.90;;;1.48;;
21729;SDS011;11027;51.030;13.812;2022-09-27T00:49:27;1.98;;;1.02;;
21729;SDS011;11027;51.030;13.812;2022-09-27T00:51:58;3.83;;;1.30;;
21729;SDS011;11027;51.030;13.812;2022-09-27T00:54:29;5.28;;;1.30;;
21729;SDS011;11027;51.030;13.812;2022-09-27T00:56:59;3.08;;;1.30;;
21729;SDS011;11027;51.030;13.812;2022-09-27T00:59:27;4.20;;;1.52;;
21729;SDS011;11027;51.030;13.812;2022-09-27T01:01:58;5.25;;;1.50;;
21729;SDS011;11027;51.030;13.812;2022-09-27T01:04:25;2.28;;;1.50;;
21729;SDS011;11027;51.030;13.812;2022-09-27T01:06:53;3.25;;;1.50;;
21729;SDS011;11027;51.030;13.812;2022-09-27T01:09:19;3.55;;;1.67;;
21729;SDS011;11027;51.030;13.812;2022-09-27T01:20:15;2.90;;;1.35;;
21729;SDS011;11027;51.030;13.812;2022-09-27T01:28:54;1.98;;;1.02;;
21729;SDS011;11027;51.030;13.812;2022-09-27T01:31:40;1.95;;;1.20;;
21729;SDS011;11027;51.030;13.812;2022-09-27T01:34:19;1.20;;;1.05;;
21729;SDS011;11027;51.030;13.812;2022-09-27T01:36:53;5.33;;;1.10;;
21729;SDS011;11027;51.030;13.812;2022-09-27T01:44:28;4.28;;;1.17;;
21729;SDS011;11027;51.030;13.812;2022-09-27T01:47:15;3.55;;;1.10;;
21729;SDS011;11027;51.030;13.812;2022-09-27T01:49:53;2.08;;;1.30;;
21729;SDS011;11027;51.030;13.812;2022-09-27T01:52:27;1.52;;;1.10;;
21729;SDS011;11027;51.030;13.812;2022-09-27T01:55:03;2.35;;;1.20;;
21729;SDS011;11027;51.030;13.812;2022-09-27T01:57:36;4.88;;;1.30;;
21729;SDS011;11027;51.030;13.812;2022-09-27T02:00:06;1.52;;;1.02;;
21729;SDS011;11027;51.030;13.812;2022-09-27T02:02:38;1.92;;;1.00;;
21729;SDS011;11027;51.030;13.812;2022-09-27T02:05:08;1.95;;;1.00;;
21729;SDS011;11027;51.030;13.812;2022-09-27T02:07:50;2.08;;;1.20;;
21729;SDS011;11027;51.030;13.812;2022-09-27T02:10:21;2.00;;;1.10;;
21729;SDS011;11027;51.030;13.812;2022-09-27T02:12:56;1.65;;;1.00;;
21729;SDS011;11027;51.030;13.812;2022-09-27T02:15:40;2.95;;;1.30;;
21729;SDS011;11027;51.030;13.812;2022-09-27T02:18:14;3.00;;;1.30;;
21729;SDS011;11027;51.030;13.812;2022-09-27T02:20:44;1.58;;;1.17;;
21729;SDS011;11027;51.030;13.812;2022-09-27T02:23:34;2.97;;;1.70;;
21729;SDS011;11027;51.030;13.812;2022-09-27T02:26:12;4.65;;;1.73;;
21729;SDS011;11027;51.030;13.812;2022-09-27T02:28:43;6.25;;;1.88;;
21729;SDS011;11027;51.030;13.812;2022-09-27T02:31:14;4.63;;;1.80;;
21729;SDS011;11027;51.030;13.812;2022-09-27T02:33:42;2.70;;;1.73;;
21729;SDS011;11027;51.030;13.812;2022-09-27T02:36:11;4.03;;;1.93;;
21729;SDS011;11027;51.030;13.812;2022-09-27T02:38:37;5.57;;;1.70;;
21729;SDS011;11027;51.030;13.812;2022-09-27T02:41:02;8.80;;;1.60;;
21729;SDS011;11027;51.030;13.812;2022-09-27T02:43:30;2.50;;;1.50;;
21729;SDS011;11027;51.030;13.812;2022-09-27T02:46:19;4.10;;;1.80;;
21729;SDS011;11027;51.030;13.812;2022-09-27T02:49:09;5.10;;;1.77;;
21729;SDS011;11027;51.030;13.812;2022-09-27T02:51:58;3.35;;;2.00;;
21729;SDS011;11027;51.030;13.812;2022-09-27T02:54:49;2.92;;;1.73;;
21729;SDS011;11027;51.030;13.812;2022-09-27T03:00:28;4.97;;;2.17;;
21729;SDS011;11027;51.030;13.812;2022-09-27T03:03:08;3.55;;;1.90;;
21729;SDS011;11027;51.030;13.812;2022-09-27T03:05:47;3.80;;;2.40;;
21729;SDS011;11027;51.030;13.812;2022-09-27T03:08:16;4.90;;;2.15;;
21729;SDS011;11027;51.030;13.812;2022-09-27T03:10:42;2.95;;;2.00;;
21729;SDS011;11027;51.030;13.812;2022-09-27T03:13:08;4.72;;;2.30;;
21729;SDS011;11027;51.030;13.812;2022-09-27T03:15:33;2.95;;;2.03;;
21729;SDS011;11027;51.030;13.812;2022-09-27T03:17:59;3.40;;;2.30;;
21729;SDS011;11027;51.030;13.812;2022-09-27T03:20:24;6.55;;;2.47;;
21729;SDS011;11027;51.030;13.812;2022-09-27T03:22:49;5.50;;;2.08;;
21729;SDS011;11027;51.030;13.812;2022-09-27T03:25:15;5.25;;;2.20;;
21729;SDS011;11027;51.030;13.812;2022-09-27T03:27:40;4.47;;;2.38;;
21729;SDS011;11027;51.030;13.812;2022-09-27T03:30:05;4.85;;;2.25;;
21729;SDS011;11027;51.030;13.812;2022-09-27T03:32:31;4.40;;;2.20;;
21729;SDS011;11027;51.030;13.812;2022-09-27T03:34:56;3.25;;;2.55;;
21729;SDS011;11027;51.030;13.812;2022-09-27T03:37:22;4.07;;;2.30;;
21729;SDS011;11027;51.030;13.812;2022-09-27T03:39:47;3.58;;;2.35;;
21729;SDS011;11027;51.030;13.812;2022-09-27T03:42:13;5.85;;;2.10;;
21729;SDS011;11027;51.030;13.812;2022-09-27T03:44:38;5.15;;;2.42;;
21729;SDS011;11027;51.030;13.812;2022-09-27T03:47:03;3.78;;;2.35;;
21729;SDS011;11027;51.030;13.812;2022-09-27T03:49:29;3.97;;;2.38;;
21729;SDS011;11027;51.030;13.812;2022-09-27T03:51:54;5.63;;;2.45;;
21729;SDS011;11027;51.030;13.812;2022-09-27T03:54:19;3.88;;;2.53;;
21729;SDS011;11027;51.030;13.812;2022-09-27T03:56:44;3.63;;;2.38;;
21729;SDS011;11027;51.030;13.812;2022-09-27T03:59:10;2.88;;;2.35;;
21729;SDS011;11027;51.030;13.812;2022-09-27T04:01:35;4.80;;;2.30;;
21729;SDS011;11027;51.030;13.812;2022-09-27T04:04:01;4.25;;;3.00;;
21729;SDS011;11027;51.030;13.812;2022-09-27T04:06:27;4.60;;;2.85;;
21729;SDS011;11027;51.030;13.812;2022-09-27T04:08:53;4.15;;;2.95;;
21729;SDS011;11027;51.030;13.812;2022-09-27T04:11:18;3.50;;;2.30;;
21729;SDS011;11027;51.030;13.812;2022-09-27T04:13:44;3.67;;;2.88;;
21729;SDS011;11027;51.030;13.812;2022-09-27T04:16:09;3.75;;;2.95;;
21729;SDS011;11027;51.030;13.812;2022-09-27T04:18:34;6.63;;;3.15;;
21729;SDS011;11027;51.030;13.812;2022-09-27T04:20:59;5.15;;;3.03;;
21729;SDS011;11027;51.030;13.812;2022-09-27T04:23:26;5.65;;;3.10;;
21729;SDS011;11027;51.030;13.812;2022-09-27T04:25:52;9.48;;;3.40;;
21729;SDS011;11027;51.030;13.812;2022-09-27T04:28:17;4.63;;;3.10;;
21729;SDS011;11027;51.030;13.812;2022-09-27T04:30:44;8.02;;;3.58;;
21729;SDS011;11027;51.030;13.812;2022-09-27T04:33:10;4.50;;;2.95;;
21729;SDS011;11027;51.030;13.812;2022-09-27T04:35:35;3.72;;;3.00;;
21729;SDS011;11027;51.030;13.812;2022-09-27T04:38:36;4.80;;;3.40;;
21729;SDS011;11027;51.030;13.812;2022-09-27T04:41:01;5.82;;;3.47;;
21729;SDS011;11027;51.030;13.812;2022-09-27T04:43:27;3.78;;;2.83;;
21729;SDS011;11027;51.030;13.812;2022-09-27T04:45:52;3.55;;;3.10;;
21729;SDS011;11027;51.030;13.812;2022-09-27T04:48:18;3.20;;;2.92;;
21729;SDS011;11027;51.030;13.812;2022-09-27T04:50:43;3.80;;;3.00;;
21729;SDS011;11027;51.030;13.812;2022-09-27T04:53:14;3.53;;;3.22;;
21729;SDS011;11027;51.030;13.812;2022-09-27T04:55:43;4.13;;;3.20;;
21729;SDS011;11027;51.030;13.812;2022-09-27T04:58:10;7.53;;;3.70;;
21729;SDS011;11027;51.030;13.812;2022-09-27T05:00:35;4.90;;;3.67;;
21729;SDS011;11027;51.030;13.812;2022-09-27T05:03:00;3.90;;;3.50;;
21729;SDS011;11027;51.030;13.812;2022-09-27T05:05:26;4.93;;;3.50;;
21729;SDS011;11027;51.030;13.812;2022-09-27T05:07:52;4.95;;;3.55;;
21729;SDS011;11027;51.030;13.812;2022-09-27T05:10:17;3.67;;;3.38;;
21729;SDS011;11027;51.030;13.812;2022-09-27T05:12:42;8.07;;;3.60;;
21729;SDS011;11027;51.030;13.812;2022-09-27T05:15:08;4.65;;;3.70;;
21729;SDS011;11027;51.030;13.812;2022-09-27T05:17:33;7.03;;;3.83;;
21729;SDS011;11027;51.030;13.812;2022-09-27T05:19:58;4.15;;;3.47;;
21729;SDS011;11027;51.030;13.812;2022-09-27T05:22:24;4.75;;;3.50;;
21729;SDS011;11027;51.030;13.812;2022-09-27T05:24:49;7.20;;;3.80;;
21729;SDS011;11027;51.030;13.812;2022-09-27T05:27:15;5.40;;;3.45;;
21729;SDS011;11027;51.030;13.812;2022-09-27T05:29:44;4.55;;;3.33;;
21729;SDS011;11027;51.030;13.812;2022-09-27T05:32:09;5.63;;;3.42;;
21729;SDS011;11027;51.030;13.812;2022-09-27T05:34:34;4.78;;;3.55;;
21729;SDS011;11027;51.030;13.812;2022-09-27T05:37:00;4.38;;;3.50;;
21729;SDS011;11027;51.030;13.812;2022-09-27T05:39:25;6.05;;;3.83;;
21729;SDS011;11027;51.030;13.812;2022-09-27T05:41:50;3.60;;;3.30;;
21729;SDS011;11027;51.030;13.812;2022-09-27T05:44:16;4.25;;;3.70;;
21729;SDS011;11027;51.030;13.812;2022-09-27T05:46:42;5.90;;;3.65;;
21729;SDS011;11027;51.030;13.812;2022-09-27T05:49:07;4.30;;;3.90;;
21729;SDS011;11027;51.030;13.812;2022-09-27T05:51:33;7.22;;;3.90;;
21729;SDS011;11027;51.030;13.812;2022-09-27T05:53:59;5.35;;;3.80;;
21729;SDS011;11027;51.030;13.812;2022-09-27T05:56:24;4.53;;;3.92;;
21729;SDS011;11027;51.030;13.812;2022-09-27T05:58:50;7.57;;;4.18;;
21729;SDS011;11027;51.030;13.812;2022-09-27T06:01:15;5.80;;;4.18;;
21729;SDS011;11027;51.030;13.812;2022-09-27T06:03:42;4.05;;;3.65;;
21729;SDS011;11027;51.030;13.812;2022-09-27T06:06:07;5.28;;;3.90;;
21729;SDS011;11027;51.030;13.812;2022-09-27T06:08:35;4.57;;;4.18;;
21729;SDS011;11027;51.030;13.812;2022-09-27T06:11:02;5.15;;;4.22;;
21729;SDS011;11027;51.030;13.812;2022-09-27T06:13:29;5.22;;;4.32;;
21729;SDS011;11027;51.030;13.812;2022-09-27T06:15:57;4.32;;;3.85;;
21729;SDS011;11027;51.030;13.812;2022-09-27T06:18:23;4.43;;;4.03;;
21729;SDS011;11027;51.030;13.812;2022-09-27T06:20:48;7.70;;;4.00;;
21729;SDS011;11027;51.030;13.812;2022-09-27T06:23:14;4.68;;;4.07;;
21729;SDS011;11027;51.030;13.812;2022-09-27T06:25:42;6.10;;;4.43;;
21729;SDS011;11027;51.030;13.812;2022-09-27T06:28:08;4.97;;;4.22;;
21729;SDS011;11027;51.030;13.812;2022-09-27T06:30:37;7.18;;;4.65;;
21729;SDS011;11027;51.030;13.812;2022-09-27T06:33:04;6.22;;;4.75;;
21729;SDS011;11027;51.030;13.812;2022-09-27T06:35:30;5.57;;;4.85;;
21729;SDS011;11027;51.030;13.812;2022-09-27T06:37:55;5.75;;;4.55;;
21729;SDS011;11027;51.030;13.812;2022-09-27T06:40:21;5.40;;;4.20;;
21729;SDS011;11027;51.030;13.812;2022-09-27T06:42:49;5.57;;;4.80;;
21729;SDS011;11027;51.030;13.812;2022-09-27T06:45:14;5.55;;;4.45;;
21729;SDS011;11027;51.030;13.812;2022-09-27T06:47:40;5.82;;;4.75;;
21729;SDS011;11027;51.030;13.812;2022-09-27T06:50:05;5.63;;;4.85;;
21729;SDS011;11027;51.030;13.812;2022-09-27T06:52:31;5.05;;;4.55;;
21729;SDS011;11027;51.030;13.812;2022-09-27T06:54:58;7.10;;;4.68;;
21729;SDS011;11027;51.030;13.812;2022-09-27T06:57:24;5.30;;;4.80;;
21729;SDS011;11027;51.030;13.812;2022-09-27T07:00:09;7.25;;;4.97;;
21729;SDS011;11027;51.030;13.812;2022-09-27T07:02:51;5.20;;;4.70;;
21729;SDS011;11027;51.030;13.812;2022-09-27T07:05:22;5.20;;;4.60;;
21729;SDS011;11027;51.030;13.812;2022-09-27T07:07:48;6.10;;;5.13;;
21729;SDS011;11027;51.030;13.812;2022-09-27T07:10:13;5.28;;;4.78;;
21729;SDS011;11027;51.030;13.812;2022-09-27T07:12:41;5.40;;;4.82;;
21729;SDS011;11027;51.030;13.812;2022-09-27T07:15:08;6.85;;;5.15;;
21729;SDS011;11027;51.030;13.812;2022-09-27T07:17:33;5.68;;;4.75;;
21729;SDS011;11027;51.030;13.812;2022-09-27T07:20:01;6.00;;;5.25;;
21729;SDS011;11027;51.030;13.812;2022-09-27T07:22:26;5.80;;;5.30;;
21729;SDS011;11027;51.030;13.812;2022-09-27T07:24:53;5.60;;;5.07;;
21729;SDS011;11027;51.030;13.812;2022-09-27T07:27:19;5.20;;;4.80;;
21729;SDS011;11027;51.030;13.812;2022-09-27T07:29:44;5.95;;;5.03;;
21729;SDS011;11027;51.030;13.812;2022-09-27T07:32:09;6.07;;;5.25;;
21729;SDS011;11027;51.030;13.812;2022-09-27T07:34:34;5.65;;;4.97;;
21729;SDS011;11027;51.030;13.812;2022-09-27T07:37:00;5.40;;;4.90;;
21729;SDS011;11027;51.030;13.812;2022-09-27T07:39:27;5.28;;;4.78;;
21729;SDS011;11027;51.030;13.812;2022-09-27T07:41:52;6.85;;;4.85;;
21729;SDS011;11027;51.030;13.812;2022-09-27T07:44:17;5.22;;;4.60;;
21729;SDS011;11027;51.030;13.812;2022-09-27T07:46:43;6.05;;;4.82;;
21729;SDS011;11027;51.030;13.812;2022-09-27T07:49:08;6.10;;;5.50;;
21729;SDS011;11027;51.030;13.812;2022-09-27T07:51:33;6.20;;;4.30;;
21729;SDS011;11027;51.030;13.812;2022-09-27T07:53:59;4.85;;;4.45;;
21729;SDS011;11027;51.030;13.812;2022-09-27T07:56:25;4.72;;;4.32;;
21729;SDS011;11027;51.030;13.812;2022-09-27T07:58:51;5.97;;;4.75;;
21729;SDS011;11027;51.030;13.812;2022-09-27T08:01:16;5.25;;;4.78;;
21729;SDS011;11027;51.030;13.812;2022-09-27T08:03:41;5.60;;;4.28;;
21729;SDS011;11027;51.030;13.812;2022-09-27T08:06:07;5.10;;;4.00;;
21729;SDS011;11027;51.030;13.812;2022-09-27T08:08:33;4.88;;;4.07;;
21729;SDS011;11027;51.030;13.812;2022-09-27T08:10:58;5.57;;;3.75;;
21729;SDS011;11027;51.030;13.812;2022-09-27T08:13:23;4.10;;;3.70;;
21729;SDS011;11027;51.030;13.812;2022-09-27T08:15:48;3.95;;;3.60;;
21729;SDS011;11027;51.030;13.812;2022-09-27T08:18:16;4.70;;;3.40;;
21729;SDS011;11027;51.030;13.812;2022-09-27T08:20:41;4.35;;;3.17;;
21729;SDS011;11027;51.030;13.812;2022-09-27T08:23:07;4.60;;;4.20;;
21729;SDS011;11027;51.030;13.812;2022-09-27T08:25:32;4.32;;;3.67;;
21729;SDS011;11027;51.030;13.812;2022-09-27T08:27:58;5.03;;;3.10;;
21729;SDS011;11027;51.030;13.812;2022-09-27T08:30:25;5.68;;;2.75;;
21729;SDS011;11027;51.030;13.812;2022-09-27T08:32:57;3.78;;;1.40;;
21729;SDS011;11027;51.030;13.812;2022-09-27T08:35:24;3.55;;;1.23;;
21729;SDS011;11027;51.030;13.812;2022-09-27T08:37:52;1.10;;;1.00;;
21729;SDS011;11027;51.030;13.812;2022-09-27T08:40:19;1.30;;;0.85;;
21729;SDS011;11027;51.030;13.812;2022-09-27T08:42:55;0.98;;;0.90;;
21729;SDS011;11027;51.030;13.812;2022-09-27T08:45:32;0.77;;;0.63;;
21729;SDS011;11027;51.030;13.812;2022-09-27T08:48:03;1.50;;;0.60;;
21729;SDS011;11027;51.030;13.812;2022-09-27T08:50:30;0.63;;;0.40;;
21729;SDS011;11027;51.030;13.812;2022-09-27T08:56:13;0.30;;;0.30;;
21729;SDS011;11027;51.030;13.812;2022-09-27T08:58:43;0.30;;;0.30;;
21729;SDS011;11027;51.030;13.812;2022-09-27T09:01:14;0.63;;;0.40;;
21729;SDS011;11027;51.030;13.812;2022-09-27T09:03:48;1.98;;;0.70;;
21729;SDS011;11027;51.030;13.812;2022-09-27T09:15:34;1.80;;;0.70;;
21729;SDS011;11027;51.030;13.812;2022-09-27T09:18:33;0.50;;;0.40;;
21729;SDS011;11027;51.030;13.812;2022-09-27T09:21:08;0.40;;;0.20;;
21729;SDS011;11027;51.030;13.812;2022-09-27T09:23:52;0.50;;;0.30;;
21729;SDS011;11027;51.030;13.812;2022-09-27T09:26:28;0.30;;;0.10;;
21729;SDS011;11027;51.030;13.812;2022-09-27T09:32:11;1.17;;;0.10;;
21729;SDS011;11027;51.030;13.812;2022-09-27T09:34:52;0.13;;;0.10;;
21729;SDS011;11027;51.030;13.812;2022-09-27T09:45:37;0.43;;;0.20;;
21729;SDS011;11027;51.030;13.812;2022-09-27T09:48:46;0.20;;;0.10;;
21729;SDS011;11027;51.030;13.812;2022-09-27T09:51:10;0.50;;;0.10;;
21729;SDS011;11027;51.030;13.812;2022-09-27T09:53:43;1.15;;;0.57;;
21729;SDS011;11027;51.030;13.812;2022-09-27T09:56:16;0.70;;;0.17;;
21729;SDS011;11027;51.030;13.812;2022-09-27T09:58:48;0.20;;;0.20;;
21729;SDS011;11027;51.030;13.812;2022-09-27T10:01:29;0.28;;;0.20;;
21729;SDS011;11027;51.030;13.812;2022-09-27T10:04:00;0.68;;;0.10;;
21729;SDS011;11027;51.030;13.812;2022-09-27T10:06:25;0.68;;;0.30;;
21729;SDS011;11027;51.030;13.812;2022-09-27T10:08:53;2.67;;;0.40;;
21729;SDS011;11027;51.030;13.812;2022-09-27T10:11:34;0.30;;;0.28;;
21729;SDS011;11027;51.030;13.812;2022-09-27T10:14:04;0.90;;;0.40;;
21729;SDS011;11027;51.030;13.812;2022-09-27T10:16:36;2.30;;;0.30;;
21729;SDS011;11027;51.030;13.812;2022-09-27T10:19:02;1.35;;;0.60;;
21729;SDS011;11027;51.030;13.812;2022-09-27T10:21:29;0.88;;;0.50;;
21729;SDS011;11027;51.030;13.812;2022-09-27T10:26:29;0.60;;;0.40;;
21729;SDS011;11027;51.030;13.812;2022-09-27T10:28:55;0.35;;;0.20;;
21729;SDS011;11027;51.030;13.812;2022-09-27T10:31:21;0.40;;;0.22;;
21729;SDS011;11027;51.030;13.812;2022-09-27T10:33:57;1.23;;;0.30;;
21729;SDS011;11027;51.030;13.812;2022-09-27T10:36:27;0.32;;;0.22;;
21729;SDS011;11027;51.030;13.812;2022-09-27T10:38:55;0.77;;;0.20;;
21729;SDS011;11027;51.030;13.812;2022-09-27T10:41:25;0.70;;;0.30;;
21729;SDS011;11027;51.030;13.812;2022-09-27T10:43:56;0.20;;;0.20;;
21729;SDS011;11027;51.030;13.812;2022-09-27T10:46:24;0.20;;;0.20;;
21729;SDS011;11027;51.030;13.812;2022-09-27T10:49:07;0.73;;;0.40;;
21729;SDS011;11027;51.030;13.812;2022-09-27T10:51:39;0.10;;;0.00;;
21729;SDS011;11027;51.030;13.812;2022-09-27T10:54:04;0.10;;;0.10;;
21729;SDS011;11027;51.030;13.812;2022-09-27T10:56:39;0.10;;;0.10;;
21729;SDS011;11027;51.030;13.812;2022-09-27T10:59:05;0.00;;;0.00;;
21729;SDS011;11027;51.030;13.812;2022-09-27T11:01:42;0.15;;;0.10;;
21729;SDS011;11027;51.030;13.812;2022-09-27T11:04:27;0.52;;;0.20;;
21729;SDS011;11027;51.030;13.812;2022-09-27T11:07:12;0.10;;;0.10;;
21729;SDS011;11027;51.030;13.812;2022-09-27T11:09:51;2.20;;;0.10;;
21729;SDS011;11027;51.030;13.812;2022-09-27T11:12:18;1.95;;;0.10;;
21729;SDS011;11027;51.030;13.812;2022-09-27T11:14:57;3.40;;;0.10;;
21729;SDS011;11027;51.030;13.812;2022-09-27T11:23:03;0.10;;;0.10;;
21729;SDS011;11027;51.030;13.812;2022-09-27T11:25:45;1.05;;;0.10;;
21729;SDS011;11027;51.030;13.812;2022-09-27T11:34:18;0.55;;;0.10;;
21729;SDS011;11027;51.030;13.812;2022-09-27T11:37:07;1.08;;;0.40;;
21729;SDS011;11027;51.030;13.812;2022-09-27T11:39:56;0.57;;;0.20;;
21729;SDS011;11027;51.030;13.812;2022-09-27T11:45:03;0.10;;;0.10;;
21729;SDS011;11027;51.030;13.812;2022-09-27T11:53:36;0.52;;;0.32;;
21729;SDS011;11027;51.030;13.812;2022-09-27T11:56:26;0.52;;;0.30;;
21729;SDS011;11027;51.030;13.812;2022-09-27T11:59:03;0.10;;;0.10;;
21729;SDS011;11027;51.030;13.812;2022-09-27T12:01:53;2.20;;;0.20;;
21729;SDS011;11027;51.030;13.812;2022-09-27T12:07:18;0.73;;;0.20;;
21729;SDS011;11027;51.030;13.812;2022-09-27T12:09:54;0.35;;;0.30;;
21729;SDS011;11027;51.030;13.812;2022-09-27T12:12:27;0.98;;;0.20;;
21729;SDS011;11027;51.030;13.812;2022-09-27T12:14:59;0.25;;;0.15;;
21729;SDS011;11027;51.030;13.812;2022-09-27T12:17:28;0.35;;;0.20;;
21729;SDS011;11027;51.030;13.812;2022-09-27T12:19:59;0.40;;;0.20;;
21729;SDS011;11027;51.030;13.812;2022-09-27T12:22:35;0.43;;;0.38;;
21729;SDS011;11027;51.030;13.812;2022-09-27T12:25:10;0.32;;;0.20;;
21729;SDS011;11027;51.030;13.812;2022-09-27T12:28:24;0.35;;;0.20;;
21729;SDS011;11027;51.030;13.812;2022-09-27T12:30:43;0.52;;;0.40;;
21729;SDS011;11027;51.030;13.812;2022-09-27T12:36:08;1.30;;;0.57;;
21729;SDS011;11027;51.030;13.812;2022-09-27T12:38:43;0.40;;;0.13;;
21729;SDS011;11027;51.030;13.812;2022-09-27T12:41:18;0.20;;;0.10;;
21729;SDS011;11027;51.030;13.812;2022-09-27T12:43:47;0.20;;;0.10;;
21729;SDS011;11027;51.030;13.812;2022-09-27T12:51:24;1.08;;;0.30;;
21729;SDS011;11027;51.030;13.812;2022-09-27T12:54:21;0.20;;;0.20;;
21729;SDS011;11027;51.030;13.812;2022-09-27T12:56:55;0.85;;;0.50;;
21729;SDS011;11027;51.030;13.812;2022-09-27T13:07:32;0.28;;;0.10;;
21729;SDS011;11027;51.030;13.812;2022-09-27T13:12:54;0.20;;;0.10;;
21729;SDS011;11027;51.030;13.812;2022-09-27T13:15:33;0.25;;;0.20;;
21729;SDS011;11027;51.030;13.812;2022-09-27T13:18:27;0.68;;;0.10;;
21729;SDS011;11027;51.030;13.812;2022-09-27T13:20:56;1.35;;;0.20;;
21729;SDS011;11027;51.030;13.812;2022-09-27T13:26:00;0.13;;;0.10;;
21729;SDS011;11027;51.030;13.812;2022-09-27T13:31:13;0.70;;;0.25;;
21729;SDS011;11027;51.030;13.812;2022-09-27T13:33:51;0.20;;;0.15;;
21729;SDS011;11027;51.030;13.812;2022-09-27T13:38:51;0.93;;;0.20;;
21729;SDS011;11027;51.030;13.812;2022-09-27T13:47:13;1.33;;;0.20;;
21729;SDS011;11027;51.030;13.812;2022-09-27T13:49:39;1.20;;;0.38;;
21729;SDS011;11027;51.030;13.812;2022-09-27T13:54:51;0.45;;;0.00;;
21729;SDS011;11027;51.030;13.812;2022-09-27T14:00:05;0.40;;;0.20;;
21729;SDS011;11027;51.030;13.812;2022-09-27T14:02:37;0.15;;;0.05;;
21729;SDS011;11027;51.030;13.812;2022-09-27T14:05:11;0.28;;;0.15;;
21729;SDS011;11027;51.030;13.812;2022-09-27T14:07:44;0.85;;;0.35;;
21729;SDS011;11027;51.030;13.812;2022-09-27T14:10:14;2.42;;;0.20;;
21729;SDS011;11027;51.030;13.812;2022-09-27T14:12:42;0.32;;;0.10;;
21729;SDS011;11027;51.030;13.812;2022-09-27T14:15:09;0.28;;;0.05;;
21729;SDS011;11027;51.030;13.812;2022-09-27T14:17:52;0.57;;;0.55;;
21729;SDS011;11027;51.030;13.812;2022-09-27T14:20:32;3.83;;;0.30;;
21729;SDS011;11027;51.030;13.812;2022-09-27T14:22:59;2.13;;;1.98;;
21729;SDS011;11027;51.030;13.812;2022-09-27T14:25:26;1.60;;;1.05;;
21729;SDS011;11027;51.030;13.812;2022-09-27T14:27:52;1.20;;;0.52;;
21729;SDS011;11027;51.030;13.812;2022-09-27T14:30:18;1.33;;;0.40;;
21729;SDS011;11027;51.030;13.812;2022-09-27T14:32:49;0.32;;;0.32;;
21729;SDS011;11027;51.030;13.812;2022-09-27T14:38:02;1.30;;;0.20;;
21729;SDS011;11027;51.030;13.812;2022-09-27T14:43:25;2.45;;;0.32;;
21729;SDS011;11027;51.030;13.812;2022-09-27T14:45:56;0.32;;;0.22;;
21729;SDS011;11027;51.030;13.812;2022-09-27T14:48:37;0.20;;;0.10;;
21729;SDS011;11027;51.030;13.812;2022-09-27T14:53:39;0.40;;;0.20;;
21729;SDS011;11027;51.030;13.812;2022-09-27T14:56:25;0.30;;;0.30;;
21729;SDS011;11027;51.030;13.812;2022-09-27T14:58:55;0.40;;;0.40;;
21729;SDS011;11027;51.030;13.812;2022-09-27T15:01:26;0.50;;;0.35;;
21729;SDS011;11027;51.030;13.812;2022-09-27T15:03:53;0.95;;;0.40;;
21729;SDS011;11027;51.030;13.812;2022-09-27T15:06:20;1.38;;;0.47;;
21729;SDS011;11027;51.030;13.812;2022-09-27T15:08:45;0.55;;;0.40;;
21729;SDS011;11027;51.030;13.812;2022-09-27T15:11:13;0.63;;;0.50;;
21729;SDS011;11027;51.030;13.812;2022-09-27T15:13:39;0.30;;;0.30;;
21729;SDS011;11027;51.030;13.812;2022-09-27T15:16:07;0.30;;;0.30;;
21729;SDS011;11027;51.030;13.812;2022-09-27T15:18:41;0.68;;;0.40;;
21729;SDS011;11027;51.030;13.812;2022-09-27T15:21:10;1.25;;;0.40;;
21729;SDS011;11027;51.030;13.812;2022-09-27T15:23:42;1.77;;;0.43;;
21729;SDS011;11027;51.030;13.812;2022-09-27T15:26:10;0.47;;;0.30;;
21729;SDS011;11027;51.030;13.812;2022-09-27T15:28:43;0.40;;;0.30;;
21729;SDS011;11027;51.030;13.812;2022-09-27T15:31:10;0.75;;;0.40;;
21729;SDS011;11027;51.030;13.812;2022-09-27T15:33:35;0.40;;;0.30;;
21729;SDS011;11027;51.030;13.812;2022-09-27T15:36:05;0.45;;;0.30;;
21729;SDS011;11027;51.030;13.812;2022-09-27T15:41:08;0.70;;;0.30;;
21729;SDS011;11027;51.030;13.812;2022-09-27T15:43:37;0.55;;;0.40;;
21729;SDS011;11027;51.030;13.812;2022-09-27T15:46:22;1.05;;;0.47;;
21729;SDS011;11027;51.030;13.812;2022-09-27T15:51:45;0.40;;;0.30;;
21729;SDS011;11027;51.030;13.812;2022-09-27T15:54:12;1.02;;;0.50;;
21729;SDS011;11027;51.030;13.812;2022-09-27T15:56:38;0.75;;;0.40;;
21729;SDS011;11027;51.030;13.812;2022-09-27T15:59:04;0.68;;;0.30;;
21729;SDS011;11027;51.030;13.812;2022-09-27T16:01:31;1.33;;;0.40;;
21729;SDS011;11027;51.030;13.812;2022-09-27T16:03:57;1.45;;;0.57;;
21729;SDS011;11027;51.030;13.812;2022-09-27T16:06:24;0.52;;;0.47;;
21729;SDS011;11027;51.030;13.812;2022-09-27T16:08:51;0.40;;;0.40;;
21729;SDS011;11027;51.030;13.812;2022-09-27T16:11:16;1.27;;;0.60;;
21729;SDS011;11027;51.030;13.812;2022-09-27T16:13:42;4.00;;;0.80;;
21729;SDS011;11027;51.030;13.812;2022-09-27T16:16:11;5.65;;;3.55;;
21729;SDS011;11027;51.030;13.812;2022-09-27T16:18:38;1.30;;;0.90;;
21729;SDS011;11027;51.030;13.812;2022-09-27T16:21:03;1.02;;;0.60;;
21729;SDS011;11027;51.030;13.812;2022-09-27T16:23:29;2.30;;;1.48;;
21729;SDS011;11027;51.030;13.812;2022-09-27T16:25:54;5.05;;;3.95;;
21729;SDS011;11027;51.030;13.812;2022-09-27T16:28:19;1.33;;;0.50;;
21729;SDS011;11027;51.030;13.812;2022-09-27T16:30:44;0.75;;;0.60;;
21729;SDS011;11027;51.030;13.812;2022-09-27T16:33:11;0.70;;;0.60;;
21729;SDS011;11027;51.030;13.812;2022-09-27T16:35:37;0.98;;;0.60;;
21729;SDS011;11027;51.030;13.812;2022-09-27T16:38:05;1.85;;;0.63;;
21729;SDS011;11027;51.030;13.812;2022-09-27T16:40:30;0.85;;;0.50;;
21729;SDS011;11027;51.030;13.812;2022-09-27T16:42:55;0.60;;;0.55;;
21729;SDS011;11027;51.030;13.812;2022-09-27T16:45:21;2.03;;;1.75;;
21729;SDS011;11027;51.030;13.812;2022-09-27T16:47:46;0.95;;;0.90;;
21729;SDS011;11027;51.030;13.812;2022-09-27T16:50:12;0.70;;;0.60;;
21729;SDS011;11027;51.030;13.812;2022-09-27T16:52:57;2.15;;;0.70;;
21729;SDS011;11027;51.030;13.812;2022-09-27T16:55:24;1.00;;;0.38;;